Time;durP1;ratioP1;P1;durP2;ratioP2;P2;SDS_P1;SDS_P2;PMS_P1;PMS_P2;Temp;Humidity;BMP_temperature;BMP_pressure;BME280_temperature;BME280_humidity;BME280_pressure;Samples;Min_cycle;Max_cycle;Signal;HPM_P1;HPM_P2
2021/11/15 00:01:20;;;;;;;21.98;11.48;;;;;;;12.44;60.75;102624.31;5019018;28;120288;-72
2021/11/15 00:03:48;;;;;;;23.88;11.88;;;;;;;12.43;60.77;102622.53;5009987;28;124633;-72
2021/11/15 00:06:15;;;;;;;21.15;11.38;;;;;;;12.42;60.66;102631.44;5019686;28;123939;-72
2021/11/15 00:08:42;;;;;;;22.92;11.32;;;;;;;12.41;60.67;102608.41;5019635;28;119682;-72
2021/11/15 00:11:10;;;;;;;22.27;11.45;;;;;;;12.40;60.67;102614.66;5018928;28;119021;-72
2021/11/15 00:13:37;;;;;;;22.90;11.52;;;;;;;12.39;60.92;102605.81;5010127;28;123803;-72
2021/11/15 00:16:04;;;;;;;24.20;10.68;;;;;;;12.38;60.71;102604.06;5016600;28;123984;-72
2021/11/15 00:18:32;;;;;;;23.35;11.65;;;;;;;12.36;60.67;102607.69;5015408;28;119592;-72
2021/11/15 00:21:00;;;;;;;21.70;11.43;;;;;;;12.34;60.72;102606.81;5015407;28;119838;-72
2021/11/15 00:23:27;;;;;;;23.75;11.70;;;;;;;12.32;60.87;102598.00;5014614;28;123887;-72
2021/11/15 00:25:54;;;;;;;22.88;11.45;;;;;;;12.32;60.84;102598.00;5012698;28;124286;-71
2021/11/15 00:28:21;;;;;;;23.90;11.60;;;;;;;12.33;60.66;102591.81;5011539;28;121324;-72
2021/11/15 00:30:48;;;;;;;22.23;12.00;;;;;;;12.33;60.54;102605.09;5020623;28;119234;-71
2021/11/15 00:33:15;;;;;;;21.70;11.32;;;;;;;12.32;60.68;102598.00;5017115;28;124074;-72
2021/11/15 00:35:42;;;;;;;22.35;10.93;;;;;;;12.33;60.66;102594.47;5014920;28;123737;-72
2021/11/15 00:38:09;;;;;;;22.05;11.15;;;;;;;12.34;60.71;102596.19;5017656;28;119001;-72
2021/11/15 00:40:37;;;;;;;24.13;11.65;;;;;;;12.32;60.55;102592.69;5014469;28;119024;-72
2021/11/15 00:43:04;;;;;;;20.88;11.75;;;;;;;12.32;60.54;102598.00;5021790;28;124128;-72
2021/11/15 00:45:31;;;;;;;22.73;11.35;;;;;;;12.30;60.67;102595.41;5015354;28;124362;-72
2021/11/15 00:47:58;;;;;;;23.10;11.88;;;;;;;12.27;60.63;102595.47;5015347;28;120539;-71
2021/11/15 00:50:26;;;;;;;23.38;11.38;;;;;;;12.26;60.70;102599.94;5013233;28;119795;-72
2021/11/15 00:52:53;;;;;;;21.25;11.18;;;;;;;12.25;60.73;102595.50;5021314;28;123297;-71
2021/11/15 00:55:20;;;;;;;23.30;11.95;;;;;;;12.25;60.60;102598.16;5013689;28;123552;-72
2021/11/15 00:57:48;;;;;;;21.98;11.57;;;;;;;12.25;60.52;102595.50;5015389;28;118933;-71
2021/11/15 01:00:23;;;;;;;22.88;11.85;;;;;;;12.23;60.50;102594.69;5019640;28;119178;-72
2021/11/15 01:02:52;;;;;;;22.00;11.73;;;;;;;12.20;60.42;102599.19;5020127;28;123657;-71
2021/11/15 01:05:20;;;;;;;23.08;11.60;;;;;;;12.16;60.13;102609.00;5013937;27;123810;-71
2021/11/15 01:07:47;;;;;;;23.35;11.68;;;;;;;12.12;60.40;102612.66;5020000;28;119280;-71
2021/11/15 01:10:17;;;;;;;22.65;11.65;;;;;;;12.10;60.37;102609.16;5012831;28;118977;-72
2021/11/15 01:12:44;;;;;;;22.20;11.23;;;;;;;12.09;60.20;102612.72;5019380;28;124452;-71
2021/11/15 01:15:16;;;;;;;20.88;11.35;;;;;;;12.05;60.15;102616.34;5022251;28;123704;-71
2021/11/15 01:17:44;;;;;;;21.20;11.70;;;;;;;12.03;59.94;102612.88;5017602;28;119124;-71
2021/11/15 01:20:13;;;;;;;20.88;11.38;;;;;;;12.00;59.91;102612.94;5019793;28;119005;-71
2021/11/15 01:22:41;;;;;;;21.10;11.40;;;;;;;11.99;60.15;102611.19;5023797;28;124092;-72
2021/11/15 01:25:09;;;;;;;22.63;11.80;;;;;;;11.99;60.18;102616.50;5022855;28;123227;-71
2021/11/15 01:27:37;;;;;;;20.55;11.52;;;;;;;11.99;60.02;102620.03;5017288;28;119071;-71
2021/11/15 01:30:09;;;;;;;23.58;11.68;;;;;;;11.98;60.15;102620.03;5021653;28;117990;-72
2021/11/15 01:32:39;;;;;;;22.90;12.90;;;;;;;11.97;59.95;102623.63;5027126;28;124038;-71
2021/11/15 01:35:06;;;;;;;22.23;12.20;;;;;;;11.96;60.23;102616.56;5018731;28;123693;-71
2021/11/15 01:37:35;;;;;;;24.52;13.70;;;;;;;11.95;60.18;102614.81;5021023;28;120222;-71
2021/11/15 01:40:03;;;;;;;25.40;13.15;;;;;;;11.94;60.21;102613.06;5021408;28;120468;-71
2021/11/15 01:42:30;;;;;;;26.27;13.00;;;;;;;11.94;60.13;102623.69;5015890;28;124116;-71
2021/11/15 01:44:57;;;;;;;27.10;13.45;;;;;;;11.93;60.26;102625.47;5019075;28;124183;-71
2021/11/15 01:47:25;;;;;;;24.83;12.95;;;;;;;11.93;60.34;102621.97;5021300;28;119200;-71
2021/11/15 01:49:52;;;;;;;25.02;12.75;;;;;;;11.93;60.38;102611.34;5019740;28;119132;-71
2021/11/15 01:52:19;;;;;;;26.27;13.48;;;;;;;11.95;60.34;102622.78;5019527;28;123904;-72
2021/11/15 01:54:46;;;;;;;26.92;14.00;;;;;;;11.96;60.23;102621.88;5016969;28;123680;-71
2021/11/15 01:57:14;;;;;;;25.77;13.13;;;;;;;11.96;60.20;102616.56;5015418;28;119871;-71
2021/11/15 01:59:41;;;;;;;24.50;13.25;;;;;;;11.95;60.22;102612.16;5015937;28;119165;-72
2021/11/15 02:02:09;;;;;;;25.73;12.93;;;;;;;11.95;60.38;102614.81;5019546;28;123831;-71
2021/11/15 02:04:36;;;;;;;26.00;13.15;;;;;;;11.93;60.15;102611.34;5020323;28;123688;-71
2021/11/15 02:07:04;;;;;;;24.05;12.68;;;;;;;11.94;60.14;102607.75;5021181;28;117363;-71
2021/11/15 02:09:31;;;;;;;22.02;12.82;;;;;;;11.91;60.06;102614.03;5020457;28;119767;-71
2021/11/15 02:11:58;;;;;;;27.17;13.70;;;;;;;11.86;59.90;102606.09;5015413;28;124238;-71
2021/11/15 02:14:25;;;;;;;24.25;13.05;;;;;;;11.81;60.03;102602.69;5018196;28;123810;-71
2021/11/15 02:16:52;;;;;;;25.13;13.25;;;;;;;11.78;59.84;102591.28;5023193;28;119222;-71
2021/11/15 02:19:19;;;;;;;25.15;13.30;;;;;;;11.74;60.18;102595.78;5024170;28;119806;-71
2021/11/15 02:21:47;;;;;;;24.55;13.32;;;;;;;11.70;60.01;102588.78;5021095;28;124045;-71
2021/11/15 02:24:16;;;;;;;24.95;12.82;;;;;;;11.68;60.06;102587.94;5021675;28;123722;-71
2021/11/15 02:26:44;;;;;;;25.15;13.88;;;;;;;11.67;60.33;102588.84;5018106;28;120608;-71
2021/11/15 02:29:11;;;;;;;25.42;12.88;;;;;;;11.65;60.12;102590.66;5015945;28;120078;-71
2021/11/15 02:31:38;;;;;;;28.77;13.65;;;;;;;11.64;60.24;102578.28;5012591;28;123927;-71
2021/11/15 02:34:06;;;;;;;24.60;12.90;;;;;;;11.63;60.26;102581.84;5022390;28;123960;-71
2021/11/15 02:36:33;;;;;;;25.65;13.77;;;;;;;11.58;60.05;102568.66;5014347;28;119296;-70
2021/11/15 02:39:01;;;;;;;23.85;13.13;;;;;;;11.55;60.39;102568.75;5013806;28;119079;-70
2021/11/15 02:41:28;;;;;;;24.70;12.63;;;;;;;11.54;60.28;102574.09;5014110;28;124829;-71
2021/11/15 02:43:56;;;;;;;24.83;13.13;;;;;;;11.53;60.47;102570.56;5015095;28;123698;-71
2021/11/15 02:46:25;;;;;;;23.77;12.73;;;;;;;11.51;60.32;102572.38;5022882;28;117066;-71
2021/11/15 02:48:52;;;;;;;23.33;13.43;;;;;;;11.52;60.32;102573.25;5020659;28;119106;-71
2021/11/15 02:51:20;;;;;;;23.73;13.18;;;;;;;11.48;60.47;102578.59;5012639;28;124837;-71
2021/11/15 02:53:47;;;;;;;23.77;13.10;;;;;;;11.47;60.50;102575.97;5018702;28;123760;-71
2021/11/15 02:56:15;;;;;;;25.52;13.20;;;;;;;11.45;60.54;102573.38;5022010;28;119358;-72
2021/11/15 02:58:42;;;;;;;24.65;13.10;;;;;;;11.46;60.65;102574.25;5015991;28;119039;-71
2021/11/15 03:01:12;;;;;;;26.67;13.88;;;;;;;11.45;60.45;102573.38;5024790;28;124902;-72
2021/11/15 03:03:41;;;;;;;24.95;12.95;;;;;;;11.43;60.50;102569.91;5020344;28;124564;-72
2021/11/15 03:06:08;;;;;;;24.33;13.20;;;;;;;11.45;60.77;102572.50;5019612;28;119130;-71
2021/11/15 03:08:36;;;;;;;24.65;12.95;;;;;;;11.43;60.79;102569.91;5014811;28;119063;-72
2021/11/15 03:11:06;;;;;;;24.10;12.20;;;;;;;11.41;60.59;102576.97;5006349;28;122866;-72
2021/11/15 03:13:46;;;;;;;24.60;12.43;;;;;;;11.41;60.67;102576.13;5023459;28;122867;-72
2021/11/15 03:16:13;;;;;;;26.08;12.75;;;;;;;11.41;60.94;102571.69;5016126;28;120181;-71
2021/11/15 03:18:42;;;;;;;25.35;12.88;;;;;;;11.41;60.79;102571.69;5017981;28;119808;-71
2021/11/15 03:21:19;;;;;;;24.42;12.85;;;;;;;11.41;60.61;102570.81;5020573;28;124133;-71
2021/11/15 03:23:49;;;;;;;26.60;12.77;;;;;;;11.37;60.71;102570.00;5025578;28;122919;-71
2021/11/15 03:26:17;;;;;;;23.35;12.95;;;;;;;11.36;60.76;102565.63;5012737;28;119184;-71
2021/11/15 03:28:50;;;;;;;24.02;12.75;;;;;;;11.34;60.38;102570.09;5015320;28;118783;-71
2021/11/15 03:31:25;;;;;;;22.73;12.48;;;;;;;11.30;60.80;102563.97;5015137;28;124830;-72
2021/11/15 03:33:56;;;;;;;24.45;13.05;;;;;;;11.30;60.77;102563.06;5019266;28;123998;-72
2021/11/15 03:36:24;;;;;;;21.92;12.55;;;;;;;11.30;60.78;102571.91;5013196;28;119391;-71
2021/11/15 03:38:52;;;;;;;24.88;12.82;;;;;;;11.32;60.68;102566.59;5012951;28;119418;-71
2021/11/15 03:41:19;;;;;;;26.75;13.25;;;;;;;11.33;60.75;102573.63;5011296;28;124166;-71
2021/11/15 03:43:47;;;;;;;23.25;12.27;;;;;;;11.34;60.71;102570.09;5012460;28;123727;-72
2021/11/15 03:46:16;;;;;;;25.20;12.60;;;;;;;11.34;60.72;102570.09;5010622;28;119990;-71
2021/11/15 03:48:43;;;;;;;22.27;12.48;;;;;;;11.34;60.35;102575.38;5019764;28;118810;-71
2021/11/15 03:51:11;;;;;;;24.33;13.32;;;;;;;11.31;60.62;102575.44;5013092;28;124812;-71
2021/11/15 03:53:40;;;;;;;27.38;13.82;;;;;;;11.30;60.68;102573.69;5013583;28;123552;-71
2021/11/15 03:56:11;;;;;;;24.27;13.48;;;;;;;11.27;60.65;102569.31;5014799;28;119318;-71
2021/11/15 03:58:39;;;;;;;26.15;14.05;;;;;;;11.26;60.87;102572.00;5018949;28;119060;-71
2021/11/15 04:01:08;;;;;;;24.33;13.27;;;;;;;11.27;60.70;102579.06;5011291;28;124738;-71
2021/11/15 04:03:38;;;;;;;22.27;12.65;;;;;;;11.25;60.64;102572.91;5014925;28;123876;-71
2021/11/15 04:06:21;;;;;;;24.05;12.90;;;;;;;11.25;60.66;102573.78;5012617;28;120376;-71
2021/11/15 04:08:48;;;;;;;23.85;12.65;;;;;;;11.24;60.68;102573.81;5014176;28;120010;-71
2021/11/15 04:11:19;;;;;;;25.45;13.65;;;;;;;11.23;60.73;102572.06;5018219;28;124037;-72
2021/11/15 04:13:49;;;;;;;24.65;12.85;;;;;;;11.22;60.74;102578.28;5014431;28;124252;-72
2021/11/15 04:16:19;;;;;;;26.73;13.75;;;;;;;11.21;60.86;102580.06;5009958;28;119390;-71
2021/11/15 04:18:55;;;;;;;24.58;14.13;;;;;;;11.21;60.93;102573.88;5021863;28;118176;-71
2021/11/15 04:21:23;;;;;;;25.52;13.55;;;;;;;11.21;60.91;102580.06;5013707;28;124011;-71
2021/11/15 04:23:50;;;;;;;25.17;13.70;;;;;;;11.21;61.00;102589.81;5024456;28;123786;-71
2021/11/15 04:26:17;;;;;;;28.63;14.45;;;;;;;11.22;61.22;102583.56;5035099;27;118345;-71
2021/11/15 04:28:44;;;;;;;25.52;14.07;;;;;;;11.22;60.77;102591.53;5020144;28;119283;-71
2021/11/15 04:31:11;;;;;;;26.33;14.07;;;;;;;11.24;60.92;102595.03;5015161;28;123820;-71
2021/11/15 04:33:39;;;;;;;26.85;14.23;;;;;;;11.23;60.88;102593.28;5016014;28;122738;-71
2021/11/15 04:36:06;;;;;;;27.10;13.48;;;;;;;11.23;60.67;102593.28;5015345;28;119148;-71
2021/11/15 04:38:33;;;;;;;26.90;13.85;;;;;;;11.22;60.79;102596.84;5012606;28;119101;-70
2021/11/15 04:41:00;;;;;;;27.40;13.75;;;;;;;11.21;61.24;102595.09;5014619;28;125011;-71
2021/11/15 04:43:27;;;;;;;29.13;14.32;;;;;;;11.23;60.85;102593.28;5018895;28;122760;-71
2021/11/15 04:45:55;;;;;;;26.90;14.45;;;;;;;11.22;61.14;102591.53;5013887;28;119108;-71
2021/11/15 04:48:22;;;;;;;29.15;14.63;;;;;;;11.21;60.98;102590.66;5028129;28;118848;-71
2021/11/15 04:50:49;;;;;;;28.55;14.50;;;;;;;11.22;60.91;102594.19;5020021;28;123923;-71
2021/11/15 04:53:17;;;;;;;28.73;14.57;;;;;;;11.21;61.18;102595.97;5020201;28;124594;-71
2021/11/15 04:55:44;;;;;;;29.70;14.80;;;;;;;11.24;60.89;102579.13;5012515;28;120354;-72
2021/11/15 04:58:11;;;;;;;28.55;14.38;;;;;;;11.25;61.11;102586.19;5016315;28;119842;-71
2021/11/15 05:00:39;;;;;;;28.80;14.43;;;;;;;11.26;61.08;102587.91;5021789;28;123842;-72
2021/11/15 05:03:06;;;;;;;28.65;14.80;;;;;;;11.25;60.90;102587.03;5023320;28;123494;-71
2021/11/15 05:05:34;;;;;;;25.15;14.05;;;;;;;11.26;60.91;102582.59;5020561;28;119036;-72
2021/11/15 05:08:01;;;;;;;29.85;14.25;;;;;;;11.26;60.90;102583.50;5023998;28;118299;-71
2021/11/15 05:10:29;;;;;;;31.23;15.60;;;;;;;11.25;60.97;102581.75;5018280;28;124268;-72
2021/11/15 05:12:58;;;;;;;31.70;14.90;;;;;;;11.23;61.03;102580.03;5020188;28;124378;-71
2021/11/15 05:15:25;;;;;;;33.60;16.10;;;;;;;11.25;61.09;102580.88;5021732;28;119864;-71
2021/11/15 05:17:52;;;;;;;33.20;16.38;;;;;;;11.22;60.69;102581.78;5020154;28;118809;-71
2021/11/15 05:20:20;;;;;;;31.23;15.05;;;;;;;11.19;61.02;102580.97;5024197;28;123937;-71
2021/11/15 05:22:48;;;;;;;33.28;15.85;;;;;;;11.18;61.02;102585.41;5022228;28;123574;-71
2021/11/15 05:25:17;;;;;;;37.53;17.67;;;;;;;11.16;60.95;102583.72;5021171;28;119186;-71
2021/11/15 05:27:44;;;;;;;35.50;17.15;;;;;;;11.15;60.97;102589.91;5017647;28;118781;-71
2021/11/15 05:30:14;;;;;;;33.83;16.52;;;;;;;11.13;60.95;102581.09;5013926;28;124109;-71
2021/11/15 05:32:41;;;;;;;32.60;15.32;;;;;;;11.13;61.25;102586.41;5016396;28;123911;-71
2021/11/15 05:35:09;;;;;;;36.47;17.02;;;;;;;11.13;61.12;102591.72;5022782;28;119369;-71
2021/11/15 05:37:37;;;;;;;37.10;16.58;;;;;;;11.10;60.92;102582.91;5020626;28;119652;-71
2021/11/15 05:40:06;;;;;;;37.55;16.75;;;;;;;11.08;60.97;102584.72;5026149;28;122884;-71
2021/11/15 05:42:34;;;;;;;36.78;16.40;;;;;;;11.09;61.16;102582.94;5021613;28;123820;-71
2021/11/15 05:45:04;;;;;;;37.30;16.98;;;;;;;11.10;61.10;102585.56;5020992;28;119114;-71
2021/11/15 05:47:31;;;;;;;33.50;15.63;;;;;;;11.12;61.45;102585.53;5021342;28;119803;-70
2021/11/15 05:49:58;;;;;;;36.42;16.00;;;;;;;11.15;61.11;102582.84;5018920;28;124067;-70
2021/11/15 05:52:26;;;;;;;34.70;16.13;;;;;;;11.18;61.35;102579.25;5017853;27;124183;-70
2021/11/15 05:54:53;;;;;;;36.33;16.08;;;;;;;11.22;61.28;102580.94;5022643;28;119437;-70
2021/11/15 05:57:20;;;;;;;39.90;16.60;;;;;;;11.23;61.04;102580.91;5020301;28;118988;-70
2021/11/15 05:59:48;;;;;;;38.90;16.48;;;;;;;11.24;61.29;102576.47;5014268;28;124071;-71
2021/11/15 06:02:16;;;;;;;37.42;16.05;;;;;;;11.24;61.20;102579.13;5019696;28;123997;-70
2021/11/15 06:04:43;;;;;;;37.20;17.40;;;;;;;11.23;60.98;102580.91;5015888;28;119132;-70
2021/11/15 06:07:10;;;;;;;35.63;16.70;;;;;;;11.23;61.23;102585.34;5019426;28;119766;-70
2021/11/15 06:09:37;;;;;;;35.53;16.85;;;;;;;11.21;61.18;102579.19;5018378;28;124148;-70
2021/11/15 06:12:05;;;;;;;38.83;16.60;;;;;;;11.21;60.92;102584.50;5020179;28;123774;-70
2021/11/15 06:14:32;;;;;;;36.55;16.90;;;;;;;11.22;61.20;102591.53;5024484;28;119288;-70
2021/11/15 06:16:59;;;;;;;36.53;17.08;;;;;;;11.24;61.30;102579.13;5014399;28;119545;-70
2021/11/15 06:19:26;;;;;;;35.17;16.17;;;;;;;11.24;61.00;102584.41;5013527;28;124422;-70
2021/11/15 06:21:53;;;;;;;32.38;15.35;;;;;;;11.24;61.21;102590.59;5017589;28;124089;-70
2021/11/15 06:24:22;;;;;;;35.72;15.68;;;;;;;11.25;61.16;102580.88;5021006;28;120083;-70
2021/11/15 06:26:49;;;;;;;36.92;16.15;;;;;;;11.24;61.03;102585.28;5012908;28;119013;-70
2021/11/15 06:29:16;;;;;;;36.67;16.85;;;;;;;11.22;61.01;102586.22;5015745;28;124782;-71
2021/11/15 06:31:43;;;;;;;36.75;16.98;;;;;;;11.21;61.36;102595.09;5010717;28;123929;-70
2021/11/15 06:34:10;;;;;;;36.78;16.67;;;;;;;11.19;61.18;102591.59;5019954;28;120110;-70
2021/11/15 06:36:37;;;;;;;39.38;16.88;;;;;;;11.19;61.25;102596.88;5017509;28;119773;-70
2021/11/15 06:39:05;;;;;;;38.38;16.80;;;;;;;11.20;61.18;102599.50;5019987;28;123840;-70
2021/11/15 06:41:33;;;;;;;33.53;16.13;;;;;;;11.20;61.15;102599.50;5014122;28;123766;-71
2021/11/15 06:44:00;;;;;;;33.38;16.38;;;;;;;11.20;61.22;102603.94;5013329;28;119579;-70
2021/11/15 06:46:28;;;;;;;36.42;16.40;;;;;;;11.18;61.17;102611.94;5025424;28;119085;-71
2021/11/15 06:48:55;;;;;;;33.28;15.02;;;;;;;11.16;60.96;102607.56;5011208;27;123249;-70
2021/11/15 06:51:36;;;;;;;35.08;15.57;;;;;;;11.12;60.91;102612.06;5015224;28;123869;-70
2021/11/15 06:54:03;;;;;;;34.33;16.08;;;;;;;11.10;61.21;102609.44;5014914;28;119672;-70
2021/11/15 06:56:30;;;;;;;35.65;16.52;;;;;;;11.10;61.00;102609.44;5018552;28;118931;-70
2021/11/15 06:58:58;;;;;;;36.70;15.68;;;;;;;11.10;61.32;102614.72;5017680;28;124060;-70
2021/11/15 07:01:25;;;;;;;35.83;16.92;;;;;;;11.10;61.11;102612.09;5012826;28;123682;-70
2021/11/15 07:03:53;;;;;;;35.25;17.00;;;;;;;11.09;61.08;102615.66;5009352;28;119363;-70
2021/11/15 07:06:20;;;;;;;36.30;16.40;;;;;;;11.08;60.96;102607.72;5016851;28;119159;-70
2021/11/15 07:08:48;;;;;;;34.20;15.90;;;;;;;11.05;61.19;102611.28;5017175;28;124132;-70
2021/11/15 07:11:15;;;;;;;35.47;16.40;;;;;;;11.03;61.12;102621.03;5013330;28;124362;-70
2021/11/15 07:13:43;;;;;;;34.88;17.25;;;;;;;11.02;61.17;102621.97;5018832;28;119078;-70
2021/11/15 07:16:11;;;;;;;36.72;16.48;;;;;;;11.02;60.86;102621.97;5022012;28;119317;-70
2021/11/15 07:18:38;;;;;;;36.58;16.58;;;;;;;11.00;61.29;102621.13;5020524;28;124080;-70
2021/11/15 07:21:07;;;;;;;34.05;16.13;;;;;;;11.02;61.23;102616.66;4996142;28;122909;-70
2021/11/15 07:23:34;;;;;;;36.35;16.70;;;;;;;11.04;61.38;102620.16;5023311;28;120263;-71
2021/11/15 07:26:02;;;;;;;34.72;15.73;;;;;;;11.09;61.16;102628.00;5017817;28;120299;-71
2021/11/15 07:28:29;;;;;;;32.17;16.05;;;;;;;11.11;61.31;102615.59;5009200;28;124695;-71
2021/11/15 07:30:56;;;;;;;35.15;15.23;;;;;;;11.14;61.30;102625.28;5011030;28;124325;-70
2021/11/15 07:33:26;;;;;;;32.88;15.48;;;;;;;11.14;61.28;102622.66;5023529;28;119029;-71
2021/11/15 07:35:54;;;;;;;33.72;16.20;;;;;;;11.14;61.31;102625.28;5024103;28;119377;-71
2021/11/15 07:38:25;;;;;;;35.45;17.33;;;;;;;11.14;60.91;102630.59;5020802;28;123965;-70
2021/11/15 07:40:52;;;;;;;36.50;16.95;;;;;;;11.11;61.25;102631.50;5020865;28;123910;-70
2021/11/15 07:43:20;;;;;;;34.80;16.25;;;;;;;11.07;61.02;102636.00;5011519;28;119120;-70
2021/11/15 07:45:48;;;;;;;36.08;16.00;;;;;;;11.05;61.17;102632.50;5019056;28;120667;-71
2021/11/15 07:48:15;;;;;;;37.83;17.55;;;;;;;11.02;61.27;102629.91;5017560;28;124770;-69
2021/11/15 07:50:44;;;;;;;36.28;16.73;;;;;;;11.02;61.23;102629.91;5019592;28;123792;-69
2021/11/15 07:53:12;;;;;;;36.13;17.20;;;;;;;11.03;61.31;102639.59;5019591;28;119011;-69
2021/11/15 07:55:41;;;;;;;38.75;18.67;;;;;;;11.02;61.46;102627.28;5014932;28;118997;-70
2021/11/15 07:58:11;;;;;;;36.65;17.13;;;;;;;11.00;61.10;102629.06;5015041;28;124048;-69
2021/11/15 08:00:38;;;;;;;32.28;15.68;;;;;;;10.98;61.19;102622.94;5006562;28;124379;-69
2021/11/15 08:03:07;;;;;;;33.95;16.38;;;;;;;10.96;61.09;102611.44;5010153;27;121040;-69
2021/11/15 08:05:35;;;;;;;34.75;16.58;;;;;;;10.94;61.29;102615.91;5017846;28;119887;-69
2021/11/15 08:08:05;;;;;;;33.13;15.68;;;;;;;10.94;61.20;102618.56;5019828;28;124162;-69
2021/11/15 08:10:32;;;;;;;33.17;16.52;;;;;;;10.93;61.31;102616.81;5012245;28;124201;-70
2021/11/15 08:13:00;;;;;;;32.75;16.23;;;;;;;10.92;61.83;102620.38;5019548;28;120247;-69
2021/11/15 08:15:27;;;;;;;34.40;16.10;;;;;;;10.94;61.37;102629.16;5016400;28;119795;-69
2021/11/15 08:17:58;;;;;;;31.55;15.13;;;;;;;10.97;61.62;102625.59;5018501;28;124886;-70
2021/11/15 08:20:32;;;;;;;34.50;16.15;;;;;;;11.00;61.63;102628.19;5014003;28;123932;-69
2021/11/15 08:23:03;;;;;;;33.88;15.88;;;;;;;11.02;61.55;102627.28;5017711;28;119186;-69
2021/11/15 08:26:04;;;;;;;33.28;16.08;;;;;;;11.03;61.50;102629.00;5018591;28;118985;-69
2021/11/15 08:28:32;;;;;;;35.17;16.58;;;;;;;11.02;61.36;102629.91;5019237;28;125005;-70
2021/11/15 08:31:03;;;;;;;38.05;17.30;;;;;;;11.01;61.61;102625.50;5017734;28;125181;-70
2021/11/15 08:33:31;;;;;;;36.10;16.50;;;;;;;10.99;61.46;102616.72;5015108;28;120114;-69
2021/11/15 08:35:59;;;;;;;37.45;16.40;;;;;;;10.96;61.38;102605.28;5011483;28;119788;-69
2021/11/15 08:38:43;;;;;;;36.47;16.58;;;;;;;10.91;61.29;102608.03;5025166;28;123795;-69
2021/11/15 08:41:12;;;;;;;34.25;15.65;;;;;;;10.89;61.32;102615.13;5015860;28;123941;-70
2021/11/15 08:43:39;;;;;;;37.40;16.83;;;;;;;10.88;61.82;102613.38;5014621;28;119408;-70
2021/11/15 08:46:08;;;;;;;35.05;15.68;;;;;;;10.85;61.56;102613.41;5017038;28;119686;-70
2021/11/15 08:48:35;;;;;;;36.92;16.17;;;;;;;10.84;61.57;102622.28;5014362;28;124667;-70
2021/11/15 08:51:05;;;;;;;36.30;15.93;;;;;;;10.84;61.73;102627.59;5025374;28;123731;-69
2021/11/15 08:53:32;;;;;;;36.58;16.38;;;;;;;10.84;61.59;102627.59;5019461;28;119160;-69
2021/11/15 08:55:59;;;;;;;33.55;14.93;;;;;;;10.81;61.61;102627.63;5024998;28;119068;-70
2021/11/15 08:58:28;;;;;;;33.03;15.02;;;;;;;10.81;61.87;102631.19;5015761;28;124286;-70
2021/11/15 09:00:56;;;;;;;34.85;15.90;;;;;;;10.81;61.68;102627.63;5014538;28;123808;-69
2021/11/15 09:03:24;;;;;;;36.20;16.45;;;;;;;10.79;61.88;102629.44;5019612;28;120096;-69
2021/11/15 09:05:52;;;;;;;34.67;14.30;;;;;;;10.80;61.84;102623.25;5010898;28;119808;-69
2021/11/15 09:08:22;;;;;;;32.35;14.30;;;;;;;10.80;61.90;102631.19;5018410;27;123218;-69
2021/11/15 09:10:50;;;;;;;31.55;14.30;;;;;;;10.79;61.76;102635.59;5016879;28;124602;-69
2021/11/15 09:13:17;;;;;;;29.73;13.82;;;;;;;10.79;61.71;102634.75;5019159;28;119977;-69
2021/11/15 09:15:44;;;;;;;34.60;14.82;;;;;;;10.79;62.08;102632.09;5024103;28;118982;-69
2021/11/15 09:18:12;;;;;;;31.10;13.50;;;;;;;10.81;62.07;102632.94;5019864;28;124063;-69
2021/11/15 09:20:40;;;;;;;32.47;14.80;;;;;;;10.81;61.96;102632.94;5021504;28;124819;-70
2021/11/15 09:23:08;;;;;;;35.53;15.18;;;;;;;10.83;62.00;102631.13;5025887;28;119126;-69
2021/11/15 09:25:36;;;;;;;35.13;15.23;;;;;;;10.84;61.98;102627.59;5026448;28;119050;-70
2021/11/15 09:28:03;;;;;;;34.72;14.85;;;;;;;10.83;61.86;102631.13;5020076;27;122836;-69
2021/11/15 09:30:30;;;;;;;34.05;14.65;;;;;;;10.83;61.77;102625.81;5024209;28;123937;-69
2021/11/15 09:33:03;;;;;;;31.95;14.20;;;;;;;10.82;61.87;102634.69;5030191;28;119984;-69
2021/11/15 09:35:32;;;;;;;30.42;14.07;;;;;;;10.80;62.04;102631.19;5026837;28;119307;-69
2021/11/15 09:38:01;;;;;;;29.35;13.50;;;;;;;10.79;61.92;102629.44;5021373;28;123771;-69
2021/11/15 09:40:28;;;;;;;30.27;13.13;;;;;;;10.78;62.14;102627.72;5044457;22;123939;-73
2021/11/15 09:42:59;;;;;;;26.38;12.60;;;;;;;10.77;62.18;102629.47;5049292;27;118615;-73
2021/11/15 09:45:27;;;;;;;27.52;12.25;;;;;;;10.78;61.99;102630.34;5046599;27;118467;-73
2021/11/15 09:47:57;;;;;;;28.80;13.23;;;;;;;10.78;62.38;102635.66;5048436;27;124903;-73
2021/11/15 09:50:25;;;;;;;32.78;13.35;;;;;;;10.78;62.09;102638.31;5045572;27;125296;-73
2021/11/15 09:52:52;;;;;;;29.60;12.85;;;;;;;10.76;62.00;102633.03;5042476;27;120278;-73
2021/11/15 09:55:21;;;;;;;33.75;14.27;;;;;;;10.75;62.12;102633.03;5054964;27;120168;-73
2021/11/15 09:57:49;;;;;;;28.33;12.68;;;;;;;10.73;62.43;102629.56;5039089;27;122939;-75
2021/11/15 10:00:22;;;;;;;31.23;12.93;;;;;;;10.70;62.32;102631.34;5041930;27;123705;-73
2021/11/15 10:02:50;;;;;;;32.25;12.30;;;;;;;10.70;62.40;102636.66;5057202;27;118741;-73
2021/11/15 10:05:18;;;;;;;26.70;13.15;;;;;;;10.70;62.46;102644.59;5045826;27;117863;-74
2021/11/15 10:07:54;;;;;;;26.30;12.38;;;;;;;10.68;62.42;102638.47;5038228;27;123146;-73
2021/11/15 10:10:39;;;;;;;27.58;12.95;;;;;;;10.66;62.25;102640.25;5037029;27;124931;-74
2021/11/15 10:13:21;;;;;;;28.40;11.77;;;;;;;10.63;62.25;102637.66;5027419;27;117977;-73
2021/11/15 10:15:57;;;;;;;30.65;13.13;;;;;;;10.61;62.28;102631.50;5034665;27;119673;-73
2021/11/15 10:18:52;;;;;;;26.63;11.57;;;;;;;10.57;62.23;102629.81;5040778;27;126060;-74
2021/11/15 10:21:36;;;;;;;26.25;11.05;;;;;;;10.53;62.33;102628.13;5044801;27;122887;-74
2021/11/15 10:24:07;;;;;;;26.48;12.10;;;;;;;10.51;62.47;102625.50;5048973;27;118555;-73
2021/11/15 10:26:43;;;;;;;25.08;11.07;;;;;;;10.51;62.43;102624.63;5044006;27;118947;-74
2021/11/15 10:29:19;;;;;;;25.35;10.90;;;;;;;10.51;62.33;102619.31;5048458;27;123819;-73
2021/11/15 10:31:47;;;;;;;25.73;11.00;;;;;;;10.51;62.36;102616.66;5047244;27;124667;-74
2021/11/15 10:34:24;;;;;;;25.30;11.65;;;;;;;10.51;62.70;102614.03;5048413;27;119171;-74
2021/11/15 10:36:59;;;;;;;25.13;10.68;;;;;;;10.50;62.56;102617.56;5040795;27;118930;-74
2021/11/15 10:39:34;;;;;;;21.77;9.90;;;;;;;10.50;62.57;102609.59;5024754;27;123615;-74
2021/11/15 10:42:16;;;;;;;23.95;9.93;;;;;;;10.51;62.55;102614.03;5047347;27;123658;-74
2021/11/15 10:45:11;;;;;;;26.33;11.32;;;;;;;10.51;62.33;102619.31;5048518;27;120280;-74
2021/11/15 10:47:56;;;;;;;25.70;10.45;;;;;;;10.54;62.40;102608.66;5044097;27;118898;-74
2021/11/15 10:50:44;;;;;;;22.27;9.65;;;;;;;10.54;62.47;102610.44;5044579;27;123826;-74
2021/11/15 10:53:21;;;;;;;27.88;11.15;;;;;;;10.56;62.60;102605.97;5037144;27;122948;-74
2021/11/15 10:56:09;;;;;;;27.20;11.07;;;;;;;10.56;62.31;102606.84;5043858;27;120261;-74
2021/11/15 10:58:42;;;;;;;26.08;10.60;;;;;;;10.58;62.71;102607.69;5046123;27;119716;-74
2021/11/15 11:01:10;;;;;;;25.20;10.35;;;;;;;10.58;62.56;102605.06;5044416;27;124901;-74
2021/11/15 11:03:39;;;;;;;27.33;11.43;;;;;;;10.58;62.47;102594.44;5045627;27;123920;-73
2021/11/15 11:06:14;;;;;;;25.67;10.13;;;;;;;10.56;62.61;102596.25;5044048;27;119205;-74
2021/11/15 11:08:45;;;;;;;29.15;11.57;;;;;;;10.56;62.58;102590.97;5046561;27;119542;-75
2021/11/15 11:11:26;;;;;;;27.30;11.48;;;;;;;10.55;62.44;102599.81;5034069;27;124129;-74